sensor_id;sensor_type;location;lat;lon;timestamp;temperature;humidity
11619;DHT22;5865;48.776;9.280;2023-01-09T03:03:19;7.40;99.90
11619;DHT22;5865;48.776;9.280;2023-01-09T03:18:28;7.40;99.90
11619;DHT22;5865;48.776;9.280;2023-01-09T03:28:24;7.40;99.90
11619;DHT22;5865;48.776;9.280;2023-01-09T04:23:00;7.10;99.90
11619;DHT22;5865;48.776;9.280;2023-01-09T04:35:19;6.80;99.90
11619;DHT22;5865;48.776;9.280;2023-01-09T04:50:11;6.30;99.90
11619;DHT22;5865;48.776;9.280;2023-01-09T04:52:39;6.20;99.90
11619;DHT22;5865;48.776;9.280;2023-01-09T04:55:07;6.40;99.90
11619;DHT22;5865;48.776;9.280;2023-01-09T05:00:08;6.40;99.90
11619;DHT22;5865;48.776;9.280;2023-01-09T05:10:06;6.30;99.90
11619;DHT22;5865;48.776;9.280;2023-01-09T12:10:21;9.90;99.90
11619;DHT22;5865;48.776;9.280;2023-01-09T13:10:50;8.50;99.90
11619;DHT22;5865;48.776;9.280;2023-01-09T13:16:32;8.70;99.90
11619;DHT22;5865;48.776;9.280;2023-01-09T14:01:38;8.50;99.90
11619;DHT22;5865;48.776;9.280;2023-01-09T14:07:22;8.60;99.90
11619;DHT22;5865;48.776;9.280;2023-01-09T14:15:47;9.90;99.90
11619;DHT22;5865;48.776;9.280;2023-01-09T14:36:19;10.60;99.90
11619;DHT22;5865;48.776;9.280;2023-01-09T15:54:52;7.20;99.90
11619;DHT22;5865;48.776;9.280;2023-01-09T16:08:50;6.80;99.90
11619;DHT22;5865;48.776;9.280;2023-01-09T16:11:40;6.30;99.90
11619;DHT22;5865;48.776;9.280;2023-01-09T16:14:28;5.80;99.90
11619;DHT22;5865;48.776;9.280;2023-01-09T16:17:14;5.40;99.90
11619;DHT22;5865;48.776;9.280;2023-01-09T16:19:47;5.20;99.90
11619;DHT22;5865;48.776;9.280;2023-01-09T16:22:29;5.10;99.90
11619;DHT22;5865;48.776;9.280;2023-01-09T16:25:24;5.00;99.90
11619;DHT22;5865;48.776;9.280;2023-01-09T16:31:19;4.90;99.90
11619;DHT22;5865;48.776;9.280;2023-01-09T16:34:03;4.90;99.90
11619;DHT22;5865;48.776;9.280;2023-01-09T17:15:41;5.50;99.90
11619;DHT22;5865;48.776;9.280;2023-01-09T17:18:13;5.40;99.90
11619;DHT22;5865;48.776;9.280;2023-01-09T17:20:56;5.30;99.90
11619;DHT22;5865;48.776;9.280;2023-01-09T17:26:19;5.20;99.90
11619;DHT22;5865;48.776;9.280;2023-01-09T17:29:05;5.30;99.90
11619;DHT22;5865;48.776;9.280;2023-01-09T17:32:05;5.20;99.90
11619;DHT22;5865;48.776;9.280;2023-01-09T17:42:43;5.10;99.90
11619;DHT22;5865;48.776;9.280;2023-01-09T17:47:39;5.10;99.90
11619;DHT22;5865;48.776;9.280;2023-01-09T17:50:14;5.10;99.90
11619;DHT22;5865;48.776;9.280;2023-01-09T17:55:10;5.20;99.90
11619;DHT22;5865;48.776;9.280;2023-01-09T17:57:37;5.30;99.90
11619;DHT22;5865;48.776;9.280;2023-01-09T18:00:05;5.40;99.90
11619;DHT22;5865;48.776;9.280;2023-01-09T18:02:32;5.40;99.90
11619;DHT22;5865;48.776;9.280;2023-01-09T18:05:01;5.50;99.90
11619;DHT22;5865;48.776;9.280;2023-01-09T18:07:28;5.40;99.90
11619;DHT22;5865;48.776;9.280;2023-01-09T18:12:23;5.50;99.90
11619;DHT22;5865;48.776;9.280;2023-01-09T18:14:50;5.60;99.90
11619;DHT22;5865;48.776;9.280;2023-01-09T18:17:17;5.60;99.90
11619;DHT22;5865;48.776;9.280;2023-01-09T18:19:44;5.60;99.90
11619;DHT22;5865;48.776;9.280;2023-01-09T18:22:12;5.60;99.90
11619;DHT22;5865;48.776;9.280;2023-01-09T18:24:39;5.60;99.90
11619;DHT22;5865;48.776;9.280;2023-01-09T18:27:06;5.60;99.90
11619;DHT22;5865;48.776;9.280;2023-01-09T18:32:01;5.60;99.90
11619;DHT22;5865;48.776;9.280;2023-01-09T18:34:28;5.60;99.90
11619;DHT22;5865;48.776;9.280;2023-01-09T18:36:54;5.60;99.90
11619;DHT22;5865;48.776;9.280;2023-01-09T18:39:23;5.50;99.90
11619;DHT22;5865;48.776;9.280;2023-01-09T18:44:18;5.50;99.90
11619;DHT22;5865;48.776;9.280;2023-01-09T18:46:46;5.50;99.90
11619;DHT22;5865;48.776;9.280;2023-01-09T18:49:13;5.50;99.90
11619;DHT22;5865;48.776;9.280;2023-01-09T18:51:40;5.40;99.90
11619;DHT22;5865;48.776;9.280;2023-01-09T18:54:08;5.40;99.90
11619;DHT22;5865;48.776;9.280;2023-01-09T18:56:39;5.50;99.90
11619;DHT22;5865;48.776;9.280;2023-01-09T19:01:37;5.40;99.90
11619;DHT22;5865;48.776;9.280;2023-01-09T19:04:04;5.40;99.90
11619;DHT22;5865;48.776;9.280;2023-01-09T19:06:31;5.40;99.90
11619;DHT22;5865;48.776;9.280;2023-01-09T19:08:59;5.40;99.90
11619;DHT22;5865;48.776;9.280;2023-01-09T19:11:26;5.40;99.90
11619;DHT22;5865;48.776;9.280;2023-01-09T19:13:54;5.30;99.90
11619;DHT22;5865;48.776;9.280;2023-01-09T19:18:48;5.30;99.90
11619;DHT22;5865;48.776;9.280;2023-01-09T19:21:18;5.30;99.90
11619;DHT22;5865;48.776;9.280;2023-01-09T19:23:46;5.20;99.90
11619;DHT22;5865;48.776;9.280;2023-01-09T19:26:15;5.10;99.90
11619;DHT22;5865;48.776;9.280;2023-01-09T19:28:43;5.00;99.90
11619;DHT22;5865;48.776;9.280;2023-01-09T19:31:13;5.00;99.90
11619;DHT22;5865;48.776;9.280;2023-01-09T19:33:40;4.90;99.90
11619;DHT22;5865;48.776;9.280;2023-01-09T19:36:07;4.90;99.90
11619;DHT22;5865;48.776;9.280;2023-01-09T19:38:34;4.90;99.90
11619;DHT22;5865;48.776;9.280;2023-01-09T19:41:07;4.90;99.90
11619;DHT22;5865;48.776;9.280;2023-01-09T19:43:37;4.90;99.90
11619;DHT22;5865;48.776;9.280;2023-01-09T19:46:06;4.90;99.90
11619;DHT22;5865;48.776;9.280;2023-01-09T19:48:36;4.90;99.90
11619;DHT22;5865;48.776;9.280;2023-01-09T19:51:04;4.90;99.90
11619;DHT22;5865;48.776;9.280;2023-01-09T19:53:35;4.90;99.90
11619;DHT22;5865;48.776;9.280;2023-01-09T19:56:09;4.80;99.90
11619;DHT22;5865;48.776;9.280;2023-01-09T19:58:36;4.70;99.90
11619;DHT22;5865;48.776;9.280;2023-01-09T20:01:11;4.80;99.90
11619;DHT22;5865;48.776;9.280;2023-01-09T20:03:41;4.80;99.90
11619;DHT22;5865;48.776;9.280;2023-01-09T20:06:11;4.90;99.90
11619;DHT22;5865;48.776;9.280;2023-01-09T20:08:39;4.80;99.90
11619;DHT22;5865;48.776;9.280;2023-01-09T20:11:06;4.80;99.90
11619;DHT22;5865;48.776;9.280;2023-01-09T20:13:34;4.80;99.90
11619;DHT22;5865;48.776;9.280;2023-01-09T20:16:02;4.80;99.90
11619;DHT22;5865;48.776;9.280;2023-01-09T20:18:31;4.70;99.90
11619;DHT22;5865;48.776;9.280;2023-01-09T20:21:00;4.70;99.90
11619;DHT22;5865;48.776;9.280;2023-01-09T20:23:28;4.70;99.90
11619;DHT22;5865;48.776;9.280;2023-01-09T20:25:57;4.70;99.90
11619;DHT22;5865;48.776;9.280;2023-01-09T20:28:26;4.80;99.90
11619;DHT22;5865;48.776;9.280;2023-01-09T20:33:22;4.80;99.90
11619;DHT22;5865;48.776;9.280;2023-01-09T20:35:49;4.70;99.90
11619;DHT22;5865;48.776;9.280;2023-01-09T20:40:47;4.70;99.90
11619;DHT22;5865;48.776;9.280;2023-01-09T20:43:14;4.80;99.90
11619;DHT22;5865;48.776;9.280;2023-01-09T20:48:10;4.80;99.90
11619;DHT22;5865;48.776;9.280;2023-01-09T20:50:39;4.70;99.90
11619;DHT22;5865;48.776;9.280;2023-01-09T20:53:06;4.80;99.90
11619;DHT22;5865;48.776;9.280;2023-01-09T20:55:35;4.70;99.90
11619;DHT22;5865;48.776;9.280;2023-01-09T20:58:02;4.70;99.90
11619;DHT22;5865;48.776;9.280;2023-01-09T21:02:57;4.80;99.90
11619;DHT22;5865;48.776;9.280;2023-01-09T21:05:24;4.70;99.90
11619;DHT22;5865;48.776;9.280;2023-01-09T21:07:52;4.70;99.90
11619;DHT22;5865;48.776;9.280;2023-01-09T21:10:19;4.70;99.90
11619;DHT22;5865;48.776;9.280;2023-01-09T21:12:49;4.70;99.90
11619;DHT22;5865;48.776;9.280;2023-01-09T21:15:17;4.70;99.90
11619;DHT22;5865;48.776;9.280;2023-01-09T21:17:46;4.70;99.90
11619;DHT22;5865;48.776;9.280;2023-01-09T21:20:14;4.70;99.90
11619;DHT22;5865;48.776;9.280;2023-01-09T21:22:41;4.60;99.90
11619;DHT22;5865;48.776;9.280;2023-01-09T21:25:09;4.50;99.90
11619;DHT22;5865;48.776;9.280;2023-01-09T21:30:08;4.50;99.90
11619;DHT22;5865;48.776;9.280;2023-01-09T21:32:35;4.60;99.90
11619;DHT22;5865;48.776;9.280;2023-01-09T21:35:03;4.50;99.90
11619;DHT22;5865;48.776;9.280;2023-01-09T21:37:32;4.60;99.90
11619;DHT22;5865;48.776;9.280;2023-01-09T21:40:02;4.60;99.90
11619;DHT22;5865;48.776;9.280;2023-01-09T21:42:30;4.60;99.90
11619;DHT22;5865;48.776;9.280;2023-01-09T21:45:16;4.60;99.90
11619;DHT22;5865;48.776;9.280;2023-01-09T21:48:02;4.60;99.90
11619;DHT22;5865;48.776;9.280;2023-01-09T21:52:56;4.70;99.90
11619;DHT22;5865;48.776;9.280;2023-01-09T21:55:24;4.70;99.90
11619;DHT22;5865;48.776;9.280;2023-01-09T21:57:53;4.70;99.90
11619;DHT22;5865;48.776;9.280;2023-01-09T22:00:23;4.70;99.90
11619;DHT22;5865;48.776;9.280;2023-01-09T23:35:16;5.10;99.90
11619;DHT22;5865;48.776;9.280;2023-01-09T23:40:10;5.00;99.90
